createdAt,value
2023-12-16T00:02:18.520Z,8.98
2023-12-16T00:04:42.094Z,9.00
2023-12-16T00:07:04.380Z,9.02
2023-12-16T00:09:26.177Z,9.02
2023-12-16T00:11:47.992Z,8.99
2023-12-16T00:14:10.676Z,9.00
2023-12-16T00:16:32.499Z,8.99
2023-12-16T00:18:54.779Z,8.99
2023-12-16T00:21:17.530Z,8.98
2023-12-16T00:23:39.312Z,8.99
2023-12-16T00:26:01.130Z,8.97
2023-12-16T00:28:22.955Z,8.96
2023-12-16T00:30:44.721Z,8.96
2023-12-16T00:33:07.386Z,8.96
2023-12-16T00:35:29.118Z,8.94
2023-12-16T00:37:51.167Z,8.92
2023-12-16T00:40:13.624Z,8.91
2023-12-16T00:42:35.340Z,8.93
2023-12-16T00:44:58.038Z,8.95
2023-12-16T00:47:19.702Z,8.94
2023-12-16T00:49:41.603Z,8.94
2023-12-16T00:52:04.454Z,8.94
2023-12-16T00:54:27.674Z,8.96
2023-12-16T00:56:50.861Z,8.96
2023-12-16T00:59:12.597Z,8.96
2023-12-16T01:01:34.432Z,8.96
2023-12-16T01:03:56.418Z,8.96
2023-12-16T01:06:18.222Z,8.97
2023-12-16T01:08:40.047Z,8.93
2023-12-16T01:11:02.867Z,8.90
2023-12-16T01:13:24.708Z,8.91
2023-12-16T01:15:46.538Z,8.90
2023-12-16T01:18:09.226Z,8.89
2023-12-16T01:20:31.005Z,8.90
2023-12-16T01:22:52.685Z,8.90
2023-12-16T01:25:14.437Z,8.91
2023-12-16T01:27:36.380Z,8.91
2023-12-16T01:29:58.263Z,8.90
2023-12-16T01:32:20.042Z,8.89
2023-12-16T01:34:42.185Z,8.86
2023-12-16T01:37:04.407Z,8.88
2023-12-16T01:39:26.228Z,8.87
2023-12-16T01:41:47.899Z,8.87
2023-12-16T01:44:09.586Z,8.86
2023-12-16T01:46:36.301Z,8.88
2023-12-16T01:48:58.194Z,8.91
2023-12-16T01:51:20.553Z,8.87
2023-12-16T01:53:44.323Z,8.86
2023-12-16T01:56:09.057Z,8.85
2023-12-16T01:58:31.516Z,8.85
2023-12-16T02:00:56.574Z,8.86
2023-12-16T02:03:20.657Z,8.86
2023-12-16T02:05:42.945Z,8.89
2023-12-16T02:08:05.070Z,8.88
2023-12-16T02:10:26.977Z,8.88
2023-12-16T02:12:48.887Z,8.88
2023-12-16T02:15:10.866Z,8.84
2023-12-16T02:17:32.685Z,8.81
2023-12-16T02:19:55.511Z,8.79
2023-12-16T02:22:17.304Z,8.81
2023-12-16T02:24:41.458Z,8.79
2023-12-16T02:27:03.440Z,8.78
2023-12-16T02:29:25.207Z,8.81
2023-12-16T02:31:46.948Z,8.78
2023-12-16T02:34:09.777Z,8.74
2023-12-16T02:36:31.589Z,8.73
2023-12-16T02:38:53.315Z,8.72
2023-12-16T02:41:15.262Z,8.69
2023-12-16T02:43:37.008Z,8.65
2023-12-16T02:45:58.685Z,8.60
2023-12-16T02:48:20.529Z,8.50
2023-12-16T02:50:42.345Z,8.47
2023-12-16T02:53:04.209Z,8.44
2023-12-16T02:55:26.108Z,8.42
2023-12-16T02:57:47.940Z,8.39
2023-12-16T03:00:10.452Z,8.38
2023-12-16T03:02:32.149Z,8.35
2023-12-16T03:04:53.933Z,8.32
2023-12-16T03:07:15.706Z,8.27
2023-12-16T03:09:37.440Z,8.24
2023-12-16T03:12:01.730Z,8.21
2023-12-16T03:14:23.514Z,8.16
2023-12-16T03:16:45.480Z,8.14
2023-12-16T03:19:07.261Z,8.10
2023-12-16T03:21:30.904Z,8.08
2023-12-16T03:23:52.631Z,8.06
2023-12-16T03:26:14.353Z,8.02
2023-12-16T03:28:36.153Z,8.01
2023-12-16T03:30:57.988Z,7.98
2023-12-16T03:33:19.823Z,7.96
2023-12-16T03:35:41.745Z,7.94
2023-12-16T03:38:04.584Z,7.91
2023-12-16T03:40:26.407Z,7.89
2023-12-16T03:42:48.256Z,7.86
2023-12-16T03:45:10.551Z,7.81
2023-12-16T03:47:33.601Z,7.79
2023-12-16T03:49:55.422Z,7.79
2023-12-16T03:52:17.213Z,7.75
2023-12-16T03:54:39.377Z,7.77
2023-12-16T03:57:01.125Z,7.72
2023-12-16T03:59:22.966Z,7.70
2023-12-16T04:01:46.471Z,7.69
2023-12-16T04:04:08.712Z,7.70
2023-12-16T04:06:32.386Z,7.67
2023-12-16T04:08:54.781Z,7.63
2023-12-16T04:11:16.703Z,7.64
2023-12-16T04:13:38.418Z,7.63
2023-12-16T04:16:00.224Z,7.67
2023-12-16T04:18:22.768Z,7.68
2023-12-16T04:20:44.599Z,7.66
2023-12-16T04:23:06.383Z,7.65
2023-12-16T04:25:28.091Z,7.69
2023-12-16T04:27:49.853Z,7.72
2023-12-16T04:30:12.397Z,7.72
2023-12-16T04:32:34.499Z,7.74
2023-12-16T04:34:56.378Z,7.77
2023-12-16T04:37:18.116Z,7.79
2023-12-16T04:39:39.831Z,7.80
2023-12-16T04:42:01.597Z,7.83
2023-12-16T04:44:23.322Z,7.85
2023-12-16T04:46:45.024Z,7.92
2023-12-16T04:49:06.873Z,7.92
2023-12-16T04:51:29.096Z,7.97
2023-12-16T04:53:50.850Z,7.96
2023-12-16T04:56:12.678Z,7.98
2023-12-16T04:58:35.753Z,8.00
2023-12-16T05:00:58.694Z,8.03
2023-12-16T05:03:20.545Z,8.04
2023-12-16T05:05:42.323Z,8.05
2023-12-16T05:08:04.333Z,8.06
2023-12-16T05:10:26.289Z,8.07
2023-12-16T05:12:48.202Z,8.04
2023-12-16T05:15:10.721Z,8.03
2023-12-16T05:17:33.012Z,8.00
2023-12-16T05:19:55.355Z,7.95
2023-12-16T05:22:17.156Z,7.97
2023-12-16T05:24:38.899Z,7.98
2023-12-16T05:27:00.585Z,7.94
2023-12-16T05:29:22.370Z,7.92
2023-12-16T05:31:44.125Z,7.90
2023-12-16T05:34:05.928Z,7.87
2023-12-16T05:36:27.736Z,7.86
2023-12-16T05:38:50.542Z,7.85
2023-12-16T05:41:15.802Z,7.80
2023-12-16T05:43:37.579Z,7.76
2023-12-16T05:45:59.963Z,7.69
2023-12-16T05:48:22.173Z,7.67
2023-12-16T05:50:43.970Z,7.65
2023-12-16T05:53:07.290Z,7.64
2023-12-16T05:55:29.470Z,7.61
2023-12-16T05:57:51.300Z,7.58
2023-12-16T06:00:13.721Z,7.56
2023-12-16T06:02:35.530Z,7.55
2023-12-16T06:04:57.321Z,7.52
2023-12-16T06:07:20.818Z,7.49
2023-12-16T06:09:42.599Z,7.47
2023-12-16T06:12:04.999Z,7.44
2023-12-16T06:14:26.678Z,7.40
2023-12-16T06:16:48.483Z,7.39
2023-12-16T06:19:10.360Z,7.37
2023-12-16T06:21:32.201Z,7.32
2023-12-16T06:23:53.954Z,7.28
2023-12-16T06:26:15.768Z,7.25
2023-12-16T06:28:37.749Z,7.24
2023-12-16T06:30:59.689Z,7.22
2023-12-16T06:33:23.503Z,7.23
2023-12-16T06:35:45.411Z,7.24
2023-12-16T06:38:07.073Z,7.27
2023-12-16T06:40:28.846Z,7.27
2023-12-16T06:42:50.657Z,7.27
2023-12-16T06:45:12.431Z,7.24
2023-12-16T06:47:34.331Z,7.25
2023-12-16T06:49:56.122Z,7.29
2023-12-16T06:52:17.924Z,7.26
2023-12-16T06:54:39.664Z,7.26
2023-12-16T06:57:01.376Z,7.28
2023-12-16T06:59:23.048Z,7.29
2023-12-16T07:01:44.895Z,7.32
2023-12-16T07:04:06.708Z,7.28
2023-12-16T07:06:28.453Z,7.29
2023-12-16T07:08:50.203Z,7.28
2023-12-16T07:11:15.981Z,7.28
2023-12-16T07:13:37.728Z,7.29
2023-12-16T07:15:59.468Z,7.27
2023-12-16T07:18:21.533Z,7.28
2023-12-16T07:20:43.339Z,7.28
2023-12-16T07:23:05.924Z,7.27
2023-12-16T07:25:27.855Z,7.27
2023-12-16T07:27:49.761Z,7.28
2023-12-16T07:30:12.952Z,7.26
2023-12-16T07:32:34.838Z,7.28
2023-12-16T07:34:57.418Z,7.28
2023-12-16T07:37:22.341Z,7.27
2023-12-16T07:39:44.245Z,7.26
2023-12-16T07:42:06.089Z,7.26
2023-12-16T07:44:29.869Z,7.25
2023-12-16T07:46:51.636Z,7.22
2023-12-16T07:49:13.633Z,7.22
2023-12-16T07:51:37.228Z,7.22
2023-12-16T07:54:00.756Z,7.20
2023-12-16T07:56:27.522Z,7.21
2023-12-16T07:58:52.396Z,7.22
2023-12-16T08:01:15.695Z,7.24
2023-12-16T08:03:37.466Z,7.25
2023-12-16T08:05:59.283Z,7.27
2023-12-16T08:08:21.016Z,7.30
2023-12-16T08:10:42.829Z,7.37
2023-12-16T08:13:04.768Z,7.41
2023-12-16T08:15:26.507Z,7.46
2023-12-16T08:17:48.646Z,7.49
2023-12-16T08:20:11.178Z,7.56
2023-12-16T08:22:34.424Z,7.57
2023-12-16T08:24:56.180Z,7.57
2023-12-16T08:27:17.911Z,7.59
2023-12-16T08:29:39.724Z,7.61
2023-12-16T08:32:01.408Z,7.63
2023-12-16T08:34:23.825Z,7.66
2023-12-16T08:36:45.788Z,7.69
2023-12-16T08:39:07.486Z,7.75
2023-12-16T08:41:29.177Z,7.78
2023-12-16T08:43:50.902Z,7.79
2023-12-16T08:46:13.327Z,7.86
2023-12-16T08:48:36.903Z,7.87
2023-12-16T08:50:59.007Z,7.88
2023-12-16T08:53:21.269Z,7.90
2023-12-16T08:55:43.669Z,7.92
2023-12-16T08:58:05.564Z,8.01
2023-12-16T09:00:27.483Z,8.05
2023-12-16T09:02:49.294Z,8.14
2023-12-16T09:05:10.996Z,8.23
2023-12-16T09:07:32.822Z,8.28
2023-12-16T09:09:54.722Z,8.32
2023-12-16T09:12:16.606Z,8.41
2023-12-16T09:14:39.393Z,8.48
2023-12-16T09:17:01.432Z,8.52
2023-12-16T09:19:23.658Z,8.60
2023-12-16T09:21:45.447Z,8.67
2023-12-16T09:24:07.320Z,8.74
2023-12-16T09:26:29.026Z,8.77
2023-12-16T09:28:51.361Z,8.85
2023-12-16T09:31:13.307Z,8.89
2023-12-16T09:33:35.152Z,8.95
2023-12-16T09:35:56.898Z,8.99
2023-12-16T09:38:18.679Z,9.00
2023-12-16T09:40:42.422Z,9.09
2023-12-16T09:43:20.082Z,9.11
2023-12-16T09:45:45.839Z,9.15
2023-12-16T09:48:07.770Z,9.14
2023-12-16T09:50:31.935Z,9.21
2023-12-16T09:52:53.809Z,9.25
2023-12-16T09:55:16.238Z,9.30
2023-12-16T09:57:42.111Z,9.36
2023-12-16T10:00:05.318Z,9.40
2023-12-16T10:02:29.969Z,9.42
2023-12-16T10:04:53.518Z,9.50
2023-12-16T10:07:15.358Z,9.54
2023-12-16T10:09:37.051Z,9.58
2023-12-16T10:12:00.599Z,9.63
2023-12-16T10:14:22.430Z,9.64
2023-12-16T10:16:48.427Z,9.62
2023-12-16T10:19:10.309Z,9.68
2023-12-16T10:21:33.792Z,9.63
2023-12-16T10:24:01.550Z,9.57
2023-12-16T10:26:23.387Z,9.57
2023-12-16T10:28:49.132Z,9.56
2023-12-16T10:31:10.885Z,9.59
2023-12-16T10:33:32.918Z,9.59
2023-12-16T10:35:54.724Z,9.56
2023-12-16T10:38:16.524Z,9.56
2023-12-16T10:40:39.010Z,9.55
2023-12-16T10:43:00.943Z,9.57
2023-12-16T10:45:22.889Z,9.58
2023-12-16T10:47:51.716Z,9.60
2023-12-16T10:50:17.051Z,9.66
2023-12-16T10:52:54.252Z,9.70
2023-12-16T10:55:45.032Z,9.69
2023-12-16T10:58:25.283Z,9.75
2023-12-16T11:00:52.672Z,9.77
2023-12-16T11:03:42.987Z,9.78
2023-12-16T11:06:13.635Z,9.86
2023-12-16T11:08:37.364Z,9.90
2023-12-16T11:10:59.762Z,9.92
2023-12-16T11:13:23.389Z,9.97
2023-12-16T11:15:50.542Z,9.97
2023-12-16T11:18:22.422Z,10.01
2023-12-16T11:21:02.422Z,10.07
2023-12-16T11:23:24.596Z,10.07
2023-12-16T11:25:49.069Z,10.06
2023-12-16T11:28:14.528Z,10.06
2023-12-16T11:30:36.733Z,10.03
2023-12-16T11:32:58.901Z,10.07
2023-12-16T11:35:49.131Z,10.11
2023-12-16T11:38:10.874Z,10.10
2023-12-16T11:40:44.136Z,10.12
2023-12-16T11:43:06.143Z,10.12
2023-12-16T11:45:44.817Z,10.15
2023-12-16T11:48:11.117Z,10.17
2023-12-16T11:50:35.508Z,10.20
2023-12-16T11:52:57.342Z,10.21
2023-12-16T11:55:20.355Z,10.21
2023-12-16T11:57:43.493Z,10.23
2023-12-16T12:00:06.274Z,10.27
2023-12-16T12:02:28.751Z,10.27
2023-12-16T12:04:50.944Z,10.29
2023-12-16T12:07:14.986Z,10.31
2023-12-16T12:09:37.039Z,10.28
2023-12-16T12:11:58.812Z,10.30
2023-12-16T12:14:20.494Z,10.27
2023-12-16T12:16:42.584Z,10.28
2023-12-16T12:19:04.750Z,10.32
2023-12-16T12:21:27.849Z,10.30
2023-12-16T12:23:49.641Z,10.25
2023-12-16T12:26:12.346Z,10.24
2023-12-16T12:28:34.485Z,10.25
2023-12-16T12:31:07.890Z,10.21
2023-12-16T12:33:31.266Z,10.20
2023-12-16T12:35:53.083Z,10.22
2023-12-16T12:38:20.546Z,10.19
2023-12-16T12:40:42.238Z,10.22
2023-12-16T12:43:04.042Z,10.24
2023-12-16T12:45:34.965Z,10.22
2023-12-16T12:48:18.592Z,10.22
2023-12-16T12:50:42.768Z,10.20
2023-12-16T12:53:24.515Z,10.19
2023-12-16T12:55:51.491Z,10.18
2023-12-16T12:58:20.099Z,10.15
2023-12-16T13:00:53.608Z,10.13
2023-12-16T13:03:15.623Z,10.15
2023-12-16T13:05:39.001Z,10.14
2023-12-16T13:08:00.846Z,10.11
2023-12-16T13:10:23.001Z,10.10
2023-12-16T13:12:44.687Z,10.10
2023-12-16T13:15:07.349Z,10.07
2023-12-16T13:17:29.288Z,10.06
2023-12-16T13:19:51.161Z,10.08
2023-12-16T13:22:12.963Z,10.10
2023-12-16T13:24:34.823Z,10.08
2023-12-16T13:26:56.529Z,10.08
2023-12-16T13:29:19.988Z,10.06
2023-12-16T13:31:41.774Z,10.04
2023-12-16T13:34:03.685Z,10.06
2023-12-16T13:36:34.416Z,10.11
2023-12-16T13:39:09.604Z,10.05
2023-12-16T13:41:31.832Z,10.04
2023-12-16T13:43:54.264Z,10.04
2023-12-16T13:46:16.086Z,10.01
2023-12-16T13:48:37.936Z,10.02
2023-12-16T13:50:59.696Z,10.05
2023-12-16T13:53:21.496Z,10.07
2023-12-16T13:55:43.392Z,10.06
2023-12-16T13:58:05.647Z,10.10
2023-12-16T14:00:27.422Z,10.11
2023-12-16T14:02:49.146Z,10.09
2023-12-16T14:05:11.146Z,10.11
2023-12-16T14:07:34.085Z,10.14
2023-12-16T14:09:57.417Z,10.17
2023-12-16T14:12:19.124Z,10.19
2023-12-16T14:14:40.871Z,10.22
2023-12-16T14:17:02.663Z,10.22
2023-12-16T14:19:24.671Z,10.21
2023-12-16T14:21:46.631Z,10.24
2023-12-16T14:24:08.813Z,10.23
2023-12-16T14:26:31.386Z,10.23
2023-12-16T14:28:54.111Z,10.22
2023-12-16T14:31:15.911Z,10.24
2023-12-16T14:33:37.970Z,10.29
2023-12-16T14:36:00.068Z,10.29
2023-12-16T14:38:21.808Z,10.29
2023-12-16T14:40:43.688Z,10.30
2023-12-16T14:43:05.351Z,10.30
2023-12-16T14:45:27.167Z,10.29
2023-12-16T14:47:49.015Z,10.26
2023-12-16T14:50:10.806Z,10.25
2023-12-16T14:52:32.561Z,10.23
2023-12-16T14:54:54.264Z,10.22
2023-12-16T14:57:16.043Z,10.23
2023-12-16T14:59:37.801Z,10.24
2023-12-16T15:01:59.722Z,10.24
2023-12-16T15:04:21.457Z,10.25
2023-12-16T15:06:43.278Z,10.27
2023-12-16T15:09:05.075Z,10.25
2023-12-16T15:11:27.557Z,10.24
2023-12-16T15:13:49.904Z,10.22
2023-12-16T15:16:12.046Z,10.20
2023-12-16T15:18:34.968Z,10.19
2023-12-16T15:20:56.800Z,10.17
2023-12-16T15:23:18.682Z,10.18
2023-12-16T15:25:40.332Z,10.17
2023-12-16T15:28:02.052Z,10.13
2023-12-16T15:30:23.922Z,10.14
2023-12-16T15:32:45.751Z,10.16
2023-12-16T15:35:07.658Z,10.12
2023-12-16T15:37:29.411Z,10.11
2023-12-16T15:39:51.107Z,10.11
2023-12-16T15:42:13.085Z,10.13
2023-12-16T15:44:36.217Z,10.10
2023-12-16T15:46:58.187Z,10.11
2023-12-16T15:49:24.515Z,10.08
2023-12-16T15:51:46.565Z,10.11
2023-12-16T15:54:08.540Z,10.12
2023-12-16T15:56:31.745Z,10.11
2023-12-16T15:58:53.465Z,10.12
2023-12-16T16:01:15.295Z,10.15
2023-12-16T16:03:37.062Z,10.15
2023-12-16T16:05:58.900Z,10.13
2023-12-16T16:08:20.705Z,10.16
2023-12-16T16:10:44.264Z,10.16
2023-12-16T16:13:10.351Z,10.20
2023-12-16T16:15:32.093Z,10.17
2023-12-16T16:17:53.967Z,10.18
2023-12-16T16:20:16.037Z,10.17
2023-12-16T16:22:37.803Z,10.20
2023-12-16T16:24:59.652Z,10.22
2023-12-16T16:27:21.408Z,10.22
2023-12-16T16:29:44.989Z,10.26
2023-12-16T16:32:10.333Z,10.25
2023-12-16T16:34:32.619Z,10.27
2023-12-16T16:36:54.442Z,10.28
2023-12-16T16:39:16.168Z,10.29
2023-12-16T16:41:37.953Z,10.27
2023-12-16T16:44:00.644Z,10.26
2023-12-16T16:46:23.422Z,10.26
2023-12-16T16:48:45.308Z,10.26
2023-12-16T16:51:07.402Z,10.22
2023-12-16T16:53:29.326Z,10.19
2023-12-16T16:55:51.745Z,10.19
2023-12-16T16:58:13.632Z,10.20
2023-12-16T17:00:36.598Z,10.21
2023-12-16T17:02:58.386Z,10.21
2023-12-16T17:05:20.992Z,10.18
2023-12-16T17:07:44.190Z,10.22
2023-12-16T17:10:06.690Z,10.24
2023-12-16T17:12:28.737Z,10.26
2023-12-16T17:14:50.462Z,10.28
2023-12-16T17:17:13.064Z,10.27
2023-12-16T17:19:34.878Z,10.27
2023-12-16T17:21:56.570Z,10.30
2023-12-16T17:24:19.953Z,10.28
2023-12-16T17:26:44.167Z,10.26
2023-12-16T17:29:05.975Z,10.32
2023-12-16T17:31:27.721Z,10.30
2023-12-16T17:33:49.699Z,10.29
2023-12-16T17:36:11.568Z,10.30
2023-12-16T17:38:33.421Z,10.30
2023-12-16T17:40:55.606Z,10.31
2023-12-16T17:43:17.357Z,10.32
2023-12-16T17:45:39.038Z,10.31
2023-12-16T17:48:01.312Z,10.27
2023-12-16T17:50:23.932Z,10.29
2023-12-16T17:52:45.814Z,10.28
2023-12-16T17:55:12.139Z,10.28
2023-12-16T17:57:33.965Z,10.27
2023-12-16T17:59:55.670Z,10.28
2023-12-16T18:02:17.427Z,10.26
2023-12-16T18:04:39.135Z,10.22
2023-12-16T18:07:00.829Z,10.26
2023-12-16T18:09:22.748Z,10.28
2023-12-16T18:11:44.663Z,10.28
2023-12-16T18:14:06.734Z,10.30
2023-12-16T18:16:28.488Z,10.32
2023-12-16T18:18:50.453Z,10.33
2023-12-16T18:21:12.897Z,10.33
2023-12-16T18:23:34.763Z,10.34
2023-12-16T18:26:01.347Z,10.38
2023-12-16T18:28:23.543Z,10.40
2023-12-16T18:30:45.295Z,10.39
2023-12-16T18:33:09.718Z,10.39
2023-12-16T18:35:37.219Z,10.41
2023-12-16T18:37:58.989Z,10.43
2023-12-16T18:40:27.113Z,10.40
2023-12-16T18:42:53.841Z,10.38
2023-12-16T18:45:15.680Z,10.36
2023-12-16T18:47:37.988Z,10.35
2023-12-16T18:50:00.683Z,10.38
2023-12-16T18:52:22.540Z,10.38
2023-12-16T18:54:44.312Z,10.34
2023-12-16T18:57:06.179Z,10.35
2023-12-16T18:59:28.852Z,10.33
2023-12-16T19:01:50.732Z,10.37
2023-12-16T19:04:12.749Z,10.39
2023-12-16T19:06:34.749Z,10.40
2023-12-16T19:08:56.521Z,10.38
2023-12-16T19:11:18.460Z,10.34
2023-12-16T19:13:40.386Z,10.38
2023-12-16T19:16:02.222Z,10.40
2023-12-16T19:18:24.615Z,10.42
2023-12-16T19:20:46.809Z,10.43
2023-12-16T19:23:08.648Z,10.44
2023-12-16T19:25:30.377Z,10.44
2023-12-16T19:27:52.265Z,10.44
2023-12-16T19:30:14.450Z,10.47
2023-12-16T19:32:36.874Z,10.48
2023-12-16T19:34:59.908Z,10.46
2023-12-16T19:37:21.749Z,10.48
2023-12-16T19:39:43.584Z,10.51
2023-12-16T19:42:07.053Z,10.52
2023-12-16T19:44:30.213Z,10.51
2023-12-16T19:46:52.722Z,10.53
2023-12-16T19:49:14.993Z,10.52
2023-12-16T19:51:37.138Z,10.49
2023-12-16T19:53:58.948Z,10.47
2023-12-16T19:56:21.024Z,10.48
2023-12-16T19:58:43.757Z,10.48
2023-12-16T20:01:05.705Z,10.45
2023-12-16T20:03:27.595Z,10.42
2023-12-16T20:05:49.440Z,10.45
2023-12-16T20:08:12.114Z,10.42
2023-12-16T20:10:33.920Z,10.42
2023-12-16T20:12:55.788Z,10.43
2023-12-16T20:15:18.022Z,10.40
2023-12-16T20:17:43.355Z,10.40
2023-12-16T20:20:09.066Z,10.35
2023-12-16T20:22:30.859Z,10.38
2023-12-16T20:24:53.701Z,10.37
2023-12-16T20:27:15.594Z,10.35
2023-12-16T20:29:37.621Z,10.37
2023-12-16T20:31:59.427Z,10.37
2023-12-16T20:34:21.743Z,10.38
2023-12-16T20:36:43.577Z,10.40
2023-12-16T20:39:23.883Z,10.40
2023-12-16T20:41:45.754Z,10.40
2023-12-16T20:44:07.726Z,10.35
2023-12-16T20:46:29.743Z,10.38
2023-12-16T20:48:52.059Z,10.38
2023-12-16T20:51:14.070Z,10.38
2023-12-16T20:53:36.067Z,10.33
2023-12-16T20:55:58.163Z,10.33
2023-12-16T20:58:20.149Z,10.33
2023-12-16T21:00:42.174Z,10.36
2023-12-16T21:03:04.130Z,10.32
2023-12-16T21:05:26.130Z,10.30
2023-12-16T21:07:48.086Z,10.33
2023-12-16T21:10:10.938Z,10.32
2023-12-16T21:12:33.532Z,10.34
2023-12-16T21:14:55.384Z,10.36
2023-12-16T21:17:19.397Z,10.35
2023-12-16T21:19:41.298Z,10.36
2023-12-16T21:22:03.246Z,10.38
2023-12-16T21:24:25.779Z,10.35
2023-12-16T21:26:47.775Z,10.33
2023-12-16T21:29:09.789Z,10.31
2023-12-16T21:31:31.535Z,10.34
2023-12-16T21:33:54.799Z,10.33
2023-12-16T21:36:18.117Z,10.33
2023-12-16T21:38:41.421Z,10.34
2023-12-16T21:41:03.381Z,10.34
2023-12-16T21:43:26.681Z,10.34
2023-12-16T21:45:49.750Z,10.33
2023-12-16T21:48:13.585Z,10.33
2023-12-16T21:50:36.025Z,10.33
2023-12-16T21:52:57.995Z,10.33
2023-12-16T21:55:19.838Z,10.35
2023-12-16T21:57:41.940Z,10.37
2023-12-16T22:00:04.946Z,10.34
2023-12-16T22:02:27.882Z,10.34
2023-12-16T22:04:49.685Z,10.33
2023-12-16T22:07:11.632Z,10.34
2023-12-16T22:09:34.715Z,10.33
2023-12-16T22:11:56.567Z,10.33
2023-12-16T22:14:19.309Z,10.32
2023-12-16T22:16:41.059Z,10.30
2023-12-16T22:19:03.237Z,10.25
2023-12-16T22:21:25.122Z,10.24
2023-12-16T22:23:46.971Z,10.26
2023-12-16T22:26:09.002Z,10.23
2023-12-16T22:28:30.906Z,10.21
2023-12-16T22:30:54.117Z,10.26
2023-12-16T22:33:16.082Z,10.25
2023-12-16T22:35:38.859Z,10.26
2023-12-16T22:38:01.597Z,10.26
2023-12-16T22:40:24.057Z,10.28
2023-12-16T22:42:46.620Z,10.32
2023-12-16T22:45:11.356Z,10.33
2023-12-16T22:47:33.449Z,10.29
2023-12-16T22:49:55.598Z,10.29
2023-12-16T22:52:17.766Z,10.33
2023-12-16T22:54:39.878Z,10.33
2023-12-16T22:57:02.782Z,10.31
2023-12-16T22:59:24.524Z,10.34
2023-12-16T23:01:46.744Z,10.32
2023-12-16T23:04:08.611Z,10.33
2023-12-16T23:06:30.387Z,10.34
2023-12-16T23:08:52.987Z,10.35
2023-12-16T23:11:14.841Z,10.31
2023-12-16T23:13:36.651Z,10.34
2023-12-16T23:15:58.489Z,10.34
2023-12-16T23:18:20.277Z,10.34
2023-12-16T23:20:42.130Z,10.35
2023-12-16T23:23:03.965Z,10.36
2023-12-16T23:25:25.767Z,10.36
2023-12-16T23:27:47.593Z,10.34
2023-12-16T23:30:11.357Z,10.36
2023-12-16T23:32:33.320Z,10.32
2023-12-16T23:34:55.169Z,10.33
2023-12-16T23:37:16.958Z,10.31
2023-12-16T23:39:38.706Z,10.35
2023-12-16T23:42:00.541Z,10.35
2023-12-16T23:44:23.412Z,10.35
2023-12-16T23:46:47.371Z,10.37
2023-12-16T23:49:09.259Z,10.40
2023-12-16T23:51:31.096Z,10.41
2023-12-16T23:53:52.888Z,10.38
2023-12-16T23:56:16.963Z,10.39
2023-12-16T23:58:38.881Z,10.42
